sensor_id;sensor_type;location;lat;lon;timestamp;pressure;altitude;pressure_sealevel;temperature;humidity
15308;BME280;7755;52.208;6.964;2023-07-22T00:00:34;100959.00;;;14.28;100.00
15308;BME280;7755;52.208;6.964;2023-07-22T00:04:37;100952.97;;;14.26;100.00
15308;BME280;7755;52.208;6.964;2023-07-22T00:08:40;100941.19;;;14.26;100.00
15308;BME280;7755;52.208;6.964;2023-07-22T00:12:43;100943.13;;;14.25;100.00
15308;BME280;7755;52.208;6.964;2023-07-22T00:16:47;100940.94;;;14.27;100.00
15308;BME280;7755;52.208;6.964;2023-07-22T00:20:50;100943.13;;;14.25;100.00
15308;BME280;7755;52.208;6.964;2023-07-22T00:24:53;100948.53;;;14.20;100.00
15308;BME280;7755;52.208;6.964;2023-07-22T00:28:56;100943.31;;;14.18;100.00
15308;BME280;7755;52.208;6.964;2023-07-22T00:33:00;100942.50;;;14.18;100.00
15308;BME280;7755;52.208;6.964;2023-07-22T00:37:04;100933.97;;;14.14;100.00
15308;BME280;7755;52.208;6.964;2023-07-22T00:41:07;100934.56;;;14.16;100.00
15308;BME280;7755;52.208;6.964;2023-07-22T00:45:10;100938.63;;;14.14;100.00
15308;BME280;7755;52.208;6.964;2023-07-22T00:49:16;100931.81;;;14.16;100.00
15308;BME280;7755;52.208;6.964;2023-07-22T00:53:19;100929.59;;;14.13;100.00
15308;BME280;7755;52.208;6.964;2023-07-22T00:57:23;100932.81;;;14.05;100.00
15308;BME280;7755;52.208;6.964;2023-07-22T01:01:26;100925.91;;;13.98;100.00
15308;BME280;7755;52.208;6.964;2023-07-22T01:05:31;100929.44;;;13.98;100.00
15308;BME280;7755;52.208;6.964;2023-07-22T01:09:35;100931.09;;;13.99;100.00
15308;BME280;7755;52.208;6.964;2023-07-22T01:13:38;100931.66;;;14.01;100.00
15308;BME280;7755;52.208;6.964;2023-07-22T01:17:41;100933.56;;;14.01;100.00
15308;BME280;7755;52.208;6.964;2023-07-22T01:21:46;100930.00;;;14.00;100.00
15308;BME280;7755;52.208;6.964;2023-07-22T01:25:52;100925.38;;;14.01;100.00
15308;BME280;7755;52.208;6.964;2023-07-22T01:29:55;100921.53;;;14.02;100.00
15308;BME280;7755;52.208;6.964;2023-07-22T01:33:58;100920.97;;;14.00;100.00
15308;BME280;7755;52.208;6.964;2023-07-22T01:38:01;100912.22;;;13.98;100.00
15308;BME280;7755;52.208;6.964;2023-07-22T01:42:05;100915.22;;;13.96;100.00
15308;BME280;7755;52.208;6.964;2023-07-22T01:46:09;100917.63;;;13.92;100.00
15308;BME280;7755;52.208;6.964;2023-07-22T01:50:11;100921.44;;;13.91;100.00
15308;BME280;7755;52.208;6.964;2023-07-22T01:54:14;100926.03;;;13.86;100.00
15308;BME280;7755;52.208;6.964;2023-07-22T01:58:19;100922.47;;;13.85;100.00
15308;BME280;7755;52.208;6.964;2023-07-22T02:02:22;100918.09;;;13.84;100.00
15308;BME280;7755;52.208;6.964;2023-07-22T02:06:26;100924.06;;;13.81;100.00
15308;BME280;7755;52.208;6.964;2023-07-22T02:10:31;100927.31;;;13.78;100.00
15308;BME280;7755;52.208;6.964;2023-07-22T02:14:35;100928.91;;;13.74;100.00
15308;BME280;7755;52.208;6.964;2023-07-22T02:18:39;100928.34;;;13.72;100.00
15308;BME280;7755;52.208;6.964;2023-07-22T02:22:42;100921.22;;;13.71;100.00
15308;BME280;7755;52.208;6.964;2023-07-22T02:26:45;100921.50;;;13.70;100.00
15308;BME280;7755;52.208;6.964;2023-07-22T02:30:50;100921.50;;;13.70;100.00
15308;BME280;7755;52.208;6.964;2023-07-22T02:34:54;100925.31;;;13.69;100.00
15308;BME280;7755;52.208;6.964;2023-07-22T02:38:57;100916.03;;;13.70;100.00
15308;BME280;7755;52.208;6.964;2023-07-22T02:42:59;100923.41;;;13.69;100.00
15308;BME280;7755;52.208;6.964;2023-07-22T02:47:04;100913.53;;;13.68;100.00
15308;BME280;7755;52.208;6.964;2023-07-22T02:51:08;100929.38;;;13.66;100.00
15308;BME280;7755;52.208;6.964;2023-07-22T02:55:15;100923.91;;;13.66;100.00
15308;BME280;7755;52.208;6.964;2023-07-22T02:59:20;100921.91;;;13.61;100.00
15308;BME280;7755;52.208;6.964;2023-07-22T03:03:24;100925.44;;;13.57;100.00
15308;BME280;7755;52.208;6.964;2023-07-22T03:07:28;100928.16;;;13.57;100.00
15308;BME280;7755;52.208;6.964;2023-07-22T03:11:31;100924.63;;;13.56;100.00
15308;BME280;7755;52.208;6.964;2023-07-22T03:15:34;100922.38;;;13.53;100.00
15308;BME280;7755;52.208;6.964;2023-07-22T03:19:38;100923.72;;;13.51;100.00
15308;BME280;7755;52.208;6.964;2023-07-22T03:23:41;100916.63;;;13.50;100.00
15308;BME280;7755;52.208;6.964;2023-07-22T03:27:44;100921.47;;;13.48;100.00
15308;BME280;7755;52.208;6.964;2023-07-22T03:31:47;100921.44;;;13.43;100.00
15308;BME280;7755;52.208;6.964;2023-07-22T03:35:52;100918.38;;;13.39;100.00
15308;BME280;7755;52.208;6.964;2023-07-22T03:39:55;100923.28;;;13.37;100.00
15308;BME280;7755;52.208;6.964;2023-07-22T03:43:58;100924.09;;;13.37;100.00
15308;BME280;7755;52.208;6.964;2023-07-22T03:48:00;100930.91;;;13.35;100.00
15308;BME280;7755;52.208;6.964;2023-07-22T03:52:06;100922.13;;;13.33;100.00
15308;BME280;7755;52.208;6.964;2023-07-22T03:56:09;100933.03;;;13.33;100.00
15308;BME280;7755;52.208;6.964;2023-07-22T04:00:13;100932.22;;;13.32;100.00
15308;BME280;7755;52.208;6.964;2023-07-22T04:04:16;100932.81;;;13.34;100.00
15308;BME280;7755;52.208;6.964;2023-07-22T04:08:20;100934.94;;;13.32;100.00
15308;BME280;7755;52.208;6.964;2023-07-22T04:12:23;100932.81;;;13.34;100.00
15308;BME280;7755;52.208;6.964;2023-07-22T04:16:26;100933.13;;;13.38;100.00
15308;BME280;7755;52.208;6.964;2023-07-22T04:20:29;100936.19;;;13.42;100.00
15308;BME280;7755;52.208;6.964;2023-07-22T04:24:33;100935.41;;;13.46;100.00
15308;BME280;7755;52.208;6.964;2023-07-22T04:28:37;100930.84;;;13.52;100.00
15308;BME280;7755;52.208;6.964;2023-07-22T04:32:39;100941.00;;;13.56;100.00
15308;BME280;7755;52.208;6.964;2023-07-22T04:36:42;100930.19;;;13.66;100.00
15308;BME280;7755;52.208;6.964;2023-07-22T04:40:47;100932.22;;;13.76;100.00
15308;BME280;7755;52.208;6.964;2023-07-22T04:44:50;100935.31;;;13.85;100.00
15308;BME280;7755;52.208;6.964;2023-07-22T04:48:53;100929.38;;;13.93;100.00
15308;BME280;7755;52.208;6.964;2023-07-22T04:52:56;100941.75;;;14.01;100.00
15308;BME280;7755;52.208;6.964;2023-07-22T04:57:00;100922.69;;;14.06;100.00
15308;BME280;7755;52.208;6.964;2023-07-22T05:01:04;100939.41;;;14.09;100.00
15308;BME280;7755;52.208;6.964;2023-07-22T05:05:07;100942.50;;;14.18;100.00
15308;BME280;7755;52.208;6.964;2023-07-22T05:09:11;100925.88;;;14.25;100.00
15308;BME280;7755;52.208;6.964;2023-07-22T05:13:15;100929.72;;;14.29;100.00
15308;BME280;7755;52.208;6.964;2023-07-22T05:17:18;100935.56;;;14.37;100.00
15308;BME280;7755;52.208;6.964;2023-07-22T05:21:21;100935.09;;;14.45;100.00
15308;BME280;7755;52.208;6.964;2023-07-22T05:25:24;100940.38;;;14.52;100.00
15308;BME280;7755;52.208;6.964;2023-07-22T05:29:28;100939.88;;;14.60;100.00
15308;BME280;7755;52.208;6.964;2023-07-22T05:33:31;100950.63;;;14.67;100.00
15308;BME280;7755;52.208;6.964;2023-07-22T05:37:34;100940.59;;;14.78;100.00
15308;BME280;7755;52.208;6.964;2023-07-22T05:41:36;100946.38;;;14.86;100.00
15308;BME280;7755;52.208;6.964;2023-07-22T05:45:44;100949.41;;;14.90;100.00
15308;BME280;7755;52.208;6.964;2023-07-22T05:49:46;100938.00;;;15.03;100.00
15308;BME280;7755;52.208;6.964;2023-07-22T05:53:49;100942.19;;;15.16;100.00
15308;BME280;7755;52.208;6.964;2023-07-22T05:57:52;100943.34;;;15.30;100.00
15308;BME280;7755;52.208;6.964;2023-07-22T06:01:56;100942.28;;;15.36;100.00
15308;BME280;7755;52.208;6.964;2023-07-22T06:05:59;100950.84;;;15.45;100.00
15308;BME280;7755;52.208;6.964;2023-07-22T06:10:02;100944.31;;;15.56;100.00
15308;BME280;7755;52.208;6.964;2023-07-22T06:14:08;100956.44;;;15.65;100.00
15308;BME280;7755;52.208;6.964;2023-07-22T06:18:12;100947.44;;;15.75;100.00
15308;BME280;7755;52.208;6.964;2023-07-22T06:22:15;100935.94;;;15.83;100.00
15308;BME280;7755;52.208;6.964;2023-07-22T06:26:18;100936.53;;;16.00;100.00
15308;BME280;7755;52.208;6.964;2023-07-22T06:30:24;100939.59;;;16.29;100.00
15308;BME280;7755;52.208;6.964;2023-07-22T06:34:28;100946.22;;;16.54;100.00
15308;BME280;7755;52.208;6.964;2023-07-22T06:38:31;100935.22;;;16.69;100.00
15308;BME280;7755;52.208;6.964;2023-07-22T06:42:34;100930.28;;;16.86;100.00
15308;BME280;7755;52.208;6.964;2023-07-22T06:46:37;100937.88;;;17.20;100.00
15308;BME280;7755;52.208;6.964;2023-07-22T06:50:47;100950.44;;;17.52;100.00
15308;BME280;7755;52.208;6.964;2023-07-22T06:54:49;100943.50;;;17.74;100.00
15308;BME280;7755;52.208;6.964;2023-07-22T06:58:52;100945.59;;;17.98;100.00
15308;BME280;7755;52.208;6.964;2023-07-22T07:02:55;100943.97;;;18.36;100.00
15308;BME280;7755;52.208;6.964;2023-07-22T07:06:59;100942.03;;;18.37;100.00
15308;BME280;7755;52.208;6.964;2023-07-22T07:11:02;100930.56;;;18.24;100.00
15308;BME280;7755;52.208;6.964;2023-07-22T07:15:06;100928.78;;;18.39;100.00
15308;BME280;7755;52.208;6.964;2023-07-22T07:19:09;100946.09;;;18.44;100.00
15308;BME280;7755;52.208;6.964;2023-07-22T07:23:14;100946.72;;;18.36;100.00
15308;BME280;7755;52.208;6.964;2023-07-22T07:27:17;100932.97;;;18.31;100.00
15308;BME280;7755;52.208;6.964;2023-07-22T07:31:20;100929.41;;;18.31;100.00
15308;BME280;7755;52.208;6.964;2023-07-22T07:35:23;100931.75;;;18.47;100.00
15308;BME280;7755;52.208;6.964;2023-07-22T07:39:27;100929.97;;;18.67;100.00
15308;BME280;7755;52.208;6.964;2023-07-22T07:43:30;100923.44;;;18.87;98.98
15308;BME280;7755;52.208;6.964;2023-07-22T07:47:33;100926.00;;;19.07;98.35
15308;BME280;7755;52.208;6.964;2023-07-22T07:51:36;100921.41;;;19.21;96.90
15308;BME280;7755;52.208;6.964;2023-07-22T07:55:40;100916.44;;;19.47;95.97
15308;BME280;7755;52.208;6.964;2023-07-22T07:59:43;100917.94;;;20.01;94.04
15308;BME280;7755;52.208;6.964;2023-07-22T08:03:46;100914.69;;;20.32;88.55
15308;BME280;7755;52.208;6.964;2023-07-22T08:07:49;100924.53;;;20.38;88.41
15308;BME280;7755;52.208;6.964;2023-07-22T08:11:53;100917.84;;;20.77;87.02
15308;BME280;7755;52.208;6.964;2023-07-22T08:15:56;100919.66;;;21.14;83.18
15308;BME280;7755;52.208;6.964;2023-07-22T08:20:00;100928.00;;;21.41;79.76
15308;BME280;7755;52.208;6.964;2023-07-22T08:24:03;100926.53;;;21.58;76.55
15308;BME280;7755;52.208;6.964;2023-07-22T08:28:07;100926.28;;;22.09;76.73
15308;BME280;7755;52.208;6.964;2023-07-22T08:32:10;100928.66;;;22.47;72.03
15308;BME280;7755;52.208;6.964;2023-07-22T08:36:13;100925.22;;;23.17;70.88
15308;BME280;7755;52.208;6.964;2023-07-22T08:40:16;100917.94;;;23.38;67.43
15308;BME280;7755;52.208;6.964;2023-07-22T08:44:21;100924.19;;;23.53;66.91
15308;BME280;7755;52.208;6.964;2023-07-22T08:48:27;100924.34;;;23.56;62.11
15308;BME280;7755;52.208;6.964;2023-07-22T08:52:33;100921.53;;;23.39;62.75
15308;BME280;7755;52.208;6.964;2023-07-22T08:56:36;100926.06;;;23.35;61.22
15308;BME280;7755;52.208;6.964;2023-07-22T09:00:41;100919.19;;;23.24;58.99
15308;BME280;7755;52.208;6.964;2023-07-22T09:04:45;100911.63;;;23.15;59.99
15308;BME280;7755;52.208;6.964;2023-07-22T09:08:48;100912.75;;;23.06;58.37
15308;BME280;7755;52.208;6.964;2023-07-22T09:12:51;100902.56;;;22.93;59.24
15308;BME280;7755;52.208;6.964;2023-07-22T09:16:57;100914.38;;;22.53;59.28
15308;BME280;7755;52.208;6.964;2023-07-22T09:21:00;100913.81;;;22.43;61.05
15308;BME280;7755;52.208;6.964;2023-07-22T09:25:14;100927.84;;;22.24;60.99
15308;BME280;7755;52.208;6.964;2023-07-22T09:29:17;100920.09;;;21.98;61.04
15308;BME280;7755;52.208;6.964;2023-07-22T09:33:22;100919.09;;;21.80;62.31
15308;BME280;7755;52.208;6.964;2023-07-22T09:37:36;100913.41;;;21.63;62.47
15308;BME280;7755;52.208;6.964;2023-07-22T09:41:41;100916.19;;;21.63;64.79
15308;BME280;7755;52.208;6.964;2023-07-22T09:45:47;100921.41;;;21.51;65.11
15308;BME280;7755;52.208;6.964;2023-07-22T09:49:51;100914.84;;;21.33;65.59
15308;BME280;7755;52.208;6.964;2023-07-22T09:54:00;100905.75;;;21.33;68.67
15308;BME280;7755;52.208;6.964;2023-07-22T09:58:04;100903.50;;;21.35;69.47
15308;BME280;7755;52.208;6.964;2023-07-22T10:02:11;100902.56;;;21.39;69.65
15308;BME280;7755;52.208;6.964;2023-07-22T10:06:15;100904.63;;;21.61;68.98
15308;BME280;7755;52.208;6.964;2023-07-22T10:10:20;100891.81;;;21.88;66.29
15308;BME280;7755;52.208;6.964;2023-07-22T10:14:24;100900.22;;;21.96;63.66
15308;BME280;7755;52.208;6.964;2023-07-22T10:18:28;100895.81;;;22.09;63.22
15308;BME280;7755;52.208;6.964;2023-07-22T10:22:36;100889.75;;;21.93;62.53
15308;BME280;7755;52.208;6.964;2023-07-22T10:26:40;100882.84;;;22.04;61.51
15308;BME280;7755;52.208;6.964;2023-07-22T10:30:48;100891.38;;;21.94;62.25
15308;BME280;7755;52.208;6.964;2023-07-22T10:34:51;100883.59;;;21.96;64.10
15308;BME280;7755;52.208;6.964;2023-07-22T10:38:57;100882.13;;;22.13;63.16
15308;BME280;7755;52.208;6.964;2023-07-22T10:43:06;100883.94;;;21.95;61.15
15308;BME280;7755;52.208;6.964;2023-07-22T10:47:09;100887.50;;;21.95;62.03
15308;BME280;7755;52.208;6.964;2023-07-22T10:51:13;100890.13;;;22.14;62.70
15308;BME280;7755;52.208;6.964;2023-07-22T10:55:19;100886.13;;;22.06;62.15
15308;BME280;7755;52.208;6.964;2023-07-22T10:59:26;100893.91;;;21.82;64.10
15308;BME280;7755;52.208;6.964;2023-07-22T11:03:29;100885.50;;;21.73;64.05
15308;BME280;7755;52.208;6.964;2023-07-22T11:07:34;100891.31;;;21.86;63.12
15308;BME280;7755;52.208;6.964;2023-07-22T11:11:42;100886.38;;;21.96;62.15
15308;BME280;7755;52.208;6.964;2023-07-22T11:15:48;100879.03;;;22.14;63.50
15308;BME280;7755;52.208;6.964;2023-07-22T11:19:51;100871.75;;;22.18;59.95
15308;BME280;7755;52.208;6.964;2023-07-22T11:23:54;100858.97;;;22.31;59.97
15308;BME280;7755;52.208;6.964;2023-07-22T11:27:58;100854.75;;;22.56;59.59
15308;BME280;7755;52.208;6.964;2023-07-22T11:32:02;100857.41;;;22.39;58.69
15308;BME280;7755;52.208;6.964;2023-07-22T11:36:07;100851.53;;;22.40;59.69
15308;BME280;7755;52.208;6.964;2023-07-22T11:40:11;100842.28;;;22.45;60.64
15308;BME280;7755;52.208;6.964;2023-07-22T11:44:18;100843.34;;;22.35;59.51
15308;BME280;7755;52.208;6.964;2023-07-22T11:48:21;100821.47;;;22.56;59.26
15308;BME280;7755;52.208;6.964;2023-07-22T11:52:24;100839.91;;;22.60;59.03
15308;BME280;7755;52.208;6.964;2023-07-22T11:56:28;100841.09;;;22.68;58.37
15308;BME280;7755;52.208;6.964;2023-07-22T12:00:33;100833.94;;;22.76;56.64
15308;BME280;7755;52.208;6.964;2023-07-22T12:04:35;100835.38;;;22.65;57.46
15308;BME280;7755;52.208;6.964;2023-07-22T12:08:45;100834.59;;;22.73;57.66
15308;BME280;7755;52.208;6.964;2023-07-22T12:12:48;100825.25;;;22.60;53.29
15308;BME280;7755;52.208;6.964;2023-07-22T12:16:55;100821.47;;;22.56;54.81
15308;BME280;7755;52.208;6.964;2023-07-22T12:21:03;100830.28;;;22.58;56.73
15308;BME280;7755;52.208;6.964;2023-07-22T12:25:07;100817.88;;;22.55;57.17
15308;BME280;7755;52.208;6.964;2023-07-22T12:29:10;100816.09;;;22.59;58.34
15308;BME280;7755;52.208;6.964;2023-07-22T12:33:14;100817.28;;;22.67;58.38
15308;BME280;7755;52.208;6.964;2023-07-22T12:37:17;100817.25;;;22.90;59.20
15308;BME280;7755;52.208;6.964;2023-07-22T12:41:20;100805.69;;;22.96;57.79
15308;BME280;7755;52.208;6.964;2023-07-22T12:45:23;100807.63;;;22.87;58.53
15308;BME280;7755;52.208;6.964;2023-07-22T12:49:27;100798.28;;;22.83;58.51
15308;BME280;7755;52.208;6.964;2023-07-22T12:53:30;100801.69;;;22.80;57.17
15308;BME280;7755;52.208;6.964;2023-07-22T12:57:33;100807.88;;;22.46;58.49
15308;BME280;7755;52.208;6.964;2023-07-22T13:01:37;100805.75;;;22.43;60.82
15308;BME280;7755;52.208;6.964;2023-07-22T13:05:45;100822.03;;;22.36;62.33
15308;BME280;7755;52.208;6.964;2023-07-22T13:09:50;100812.81;;;22.26;63.17
15308;BME280;7755;52.208;6.964;2023-07-22T13:13:55;100807.34;;;22.13;64.20
15308;BME280;7755;52.208;6.964;2023-07-22T13:17:58;100819.03;;;21.87;63.28
15308;BME280;7755;52.208;6.964;2023-07-22T13:22:02;100806.47;;;21.67;64.90
15308;BME280;7755;52.208;6.964;2023-07-22T13:26:05;100802.72;;;21.63;66.39
15308;BME280;7755;52.208;6.964;2023-07-22T13:30:08;100796.31;;;21.54;66.20
15308;BME280;7755;52.208;6.964;2023-07-22T13:34:12;100794.47;;;21.49;66.30
15308;BME280;7755;52.208;6.964;2023-07-22T13:38:16;100800.84;;;21.22;68.07
15308;BME280;7755;52.208;6.964;2023-07-22T13:42:19;100807.31;;;21.04;71.48
15308;BME280;7755;52.208;6.964;2023-07-22T13:46:22;100798.00;;;20.86;72.49
15308;BME280;7755;52.208;6.964;2023-07-22T13:50:25;100798.00;;;20.86;73.34
15308;BME280;7755;52.208;6.964;2023-07-22T13:54:30;100782.81;;;21.11;73.67
15308;BME280;7755;52.208;6.964;2023-07-22T13:58:32;100781.88;;;21.43;71.74
15308;BME280;7755;52.208;6.964;2023-07-22T14:02:36;100779.19;;;21.52;68.92
15308;BME280;7755;52.208;6.964;2023-07-22T14:06:39;100772.31;;;21.49;66.27
15308;BME280;7755;52.208;6.964;2023-07-22T14:10:43;100784.63;;;21.43;66.28
15308;BME280;7755;52.208;6.964;2023-07-22T14:14:46;100785.81;;;21.29;67.64
15308;BME280;7755;52.208;6.964;2023-07-22T14:18:49;100785.41;;;21.08;68.30
15308;BME280;7755;52.208;6.964;2023-07-22T14:22:53;100786.31;;;20.89;71.08
15308;BME280;7755;52.208;6.964;2023-07-22T14:26:57;100799.00;;;20.77;73.06
15308;BME280;7755;52.208;6.964;2023-07-22T14:31:00;100821.25;;;20.39;80.24
15308;BME280;7755;52.208;6.964;2023-07-22T14:35:04;100816.63;;;20.02;83.43
15308;BME280;7755;52.208;6.964;2023-07-22T14:39:07;100810.66;;;19.38;87.21
15308;BME280;7755;52.208;6.964;2023-07-22T14:43:12;100815.94;;;19.34;88.32
15308;BME280;7755;52.208;6.964;2023-07-22T14:47:15;100809.97;;;19.27;89.22
15308;BME280;7755;52.208;6.964;2023-07-22T14:51:18;100801.19;;;19.25;90.26
15308;BME280;7755;52.208;6.964;2023-07-22T14:55:21;100790.31;;;19.34;90.43
15308;BME280;7755;52.208;6.964;2023-07-22T14:59:25;100797.47;;;19.54;90.52
15308;BME280;7755;52.208;6.964;2023-07-22T15:03:28;100784.16;;;19.61;90.89
15308;BME280;7755;52.208;6.964;2023-07-22T15:07:32;100777.56;;;19.76;90.10
15308;BME280;7755;52.208;6.964;2023-07-22T15:11:35;100769.59;;;19.93;88.58
15308;BME280;7755;52.208;6.964;2023-07-22T15:15:39;100776.59;;;20.18;87.57
15308;BME280;7755;52.208;6.964;2023-07-22T15:19:42;100770.25;;;20.50;85.89
15308;BME280;7755;52.208;6.964;2023-07-22T15:23:45;100776.59;;;20.64;83.43
15308;BME280;7755;52.208;6.964;2023-07-22T15:27:48;100776.72;;;20.59;82.38
15308;BME280;7755;52.208;6.964;2023-07-22T15:31:52;100783.88;;;20.74;81.20
15308;BME280;7755;52.208;6.964;2023-07-22T15:35:55;100789.50;;;20.83;80.46
15308;BME280;7755;52.208;6.964;2023-07-22T15:39:58;100789.50;;;20.83;80.13
15308;BME280;7755;52.208;6.964;2023-07-22T15:44:01;100786.00;;;20.77;81.04
15308;BME280;7755;52.208;6.964;2023-07-22T15:48:05;100782.84;;;20.84;81.16
15308;BME280;7755;52.208;6.964;2023-07-22T15:52:08;100771.69;;;20.89;80.97
15308;BME280;7755;52.208;6.964;2023-07-22T15:56:11;100770.25;;;20.91;79.89
15308;BME280;7755;52.208;6.964;2023-07-22T16:00:14;100780.91;;;20.84;78.75
15308;BME280;7755;52.208;6.964;2023-07-22T16:04:18;100777.53;;;20.87;79.30
15308;BME280;7755;52.208;6.964;2023-07-22T16:08:22;100777.22;;;20.89;79.08
15308;BME280;7755;52.208;6.964;2023-07-22T16:12:26;100773.31;;;20.62;77.88
15308;BME280;7755;52.208;6.964;2023-07-22T16:16:29;100758.69;;;20.48;78.31
15308;BME280;7755;52.208;6.964;2023-07-22T16:20:33;100768.06;;;20.33;79.88
15308;BME280;7755;52.208;6.964;2023-07-22T16:24:36;100770.81;;;20.33;81.16
15308;BME280;7755;52.208;6.964;2023-07-22T16:28:40;100769.06;;;20.37;80.97
15308;BME280;7755;52.208;6.964;2023-07-22T16:32:43;100763.84;;;20.36;82.09
15308;BME280;7755;52.208;6.964;2023-07-22T16:36:47;100756.28;;;20.28;83.04
15308;BME280;7755;52.208;6.964;2023-07-22T16:40:51;100757.88;;;20.15;83.64
15308;BME280;7755;52.208;6.964;2023-07-22T16:44:54;100767.88;;;20.11;84.68
15308;BME280;7755;52.208;6.964;2023-07-22T16:48:59;100760.00;;;20.04;85.86
15308;BME280;7755;52.208;6.964;2023-07-22T16:53:04;100750.16;;;19.98;86.58
15308;BME280;7755;52.208;6.964;2023-07-22T16:57:07;100752.88;;;19.84;87.42
15308;BME280;7755;52.208;6.964;2023-07-22T17:01:10;100755.94;;;19.83;88.09
15308;BME280;7755;52.208;6.964;2023-07-22T17:05:13;100743.50;;;19.85;88.05
15308;BME280;7755;52.208;6.964;2023-07-22T17:09:17;100748.72;;;19.87;88.11
15308;BME280;7755;52.208;6.964;2023-07-22T17:13:21;100734.84;;;19.92;87.67
15308;BME280;7755;52.208;6.964;2023-07-22T17:17:24;100733.16;;;19.91;88.04
15308;BME280;7755;52.208;6.964;2023-07-22T17:21:27;100738.81;;;19.86;87.77
15308;BME280;7755;52.208;6.964;2023-07-22T17:25:32;100750.13;;;19.84;88.08
15308;BME280;7755;52.208;6.964;2023-07-22T17:29:34;100745.72;;;19.83;88.36
15308;BME280;7755;52.208;6.964;2023-07-22T17:33:40;100736.94;;;19.81;88.01
15308;BME280;7755;52.208;6.964;2023-07-22T17:37:43;100734.78;;;19.78;86.92
15308;BME280;7755;52.208;6.964;2023-07-22T17:41:47;100749.47;;;19.74;86.98
15308;BME280;7755;52.208;6.964;2023-07-22T17:45:50;100732.19;;;19.68;86.99
15308;BME280;7755;52.208;6.964;2023-07-22T17:49:52;100727.56;;;19.63;86.66
15308;BME280;7755;52.208;6.964;2023-07-22T17:53:55;100732.41;;;19.53;86.70
15308;BME280;7755;52.208;6.964;2023-07-22T17:57:59;100719.13;;;19.55;86.74
15308;BME280;7755;52.208;6.964;2023-07-22T18:02:03;100722.97;;;19.59;86.92
15308;BME280;7755;52.208;6.964;2023-07-22T18:06:06;100714.69;;;19.59;86.77
15308;BME280;7755;52.208;6.964;2023-07-22T18:10:09;100713.06;;;19.58;86.68
15308;BME280;7755;52.208;6.964;2023-07-22T18:14:14;100714.69;;;19.59;87.10
15308;BME280;7755;52.208;6.964;2023-07-22T18:18:17;100710.00;;;19.59;86.99
15308;BME280;7755;52.208;6.964;2023-07-22T18:22:20;100707.25;;;19.59;87.10
15308;BME280;7755;52.208;6.964;2023-07-22T18:26:23;100706.31;;;19.64;87.50
15308;BME280;7755;52.208;6.964;2023-07-22T18:30:27;100711.81;;;19.64;87.83
15308;BME280;7755;52.208;6.964;2023-07-22T18:34:30;100704.69;;;19.63;89.11
15308;BME280;7755;52.208;6.964;2023-07-22T18:38:33;100707.44;;;19.63;89.35
15308;BME280;7755;52.208;6.964;2023-07-22T18:42:36;100711.81;;;19.64;89.64
15308;BME280;7755;52.208;6.964;2023-07-22T18:46:41;100711.31;;;19.62;90.28
15308;BME280;7755;52.208;6.964;2023-07-22T18:50:44;100718.56;;;19.58;92.21
15308;BME280;7755;52.208;6.964;2023-07-22T18:54:46;100715.03;;;19.52;94.09
15308;BME280;7755;52.208;6.964;2023-07-22T18:58:50;100715.13;;;19.47;95.65
15308;BME280;7755;52.208;6.964;2023-07-22T19:02:55;100725.63;;;19.45;97.22
15308;BME280;7755;52.208;6.964;2023-07-22T19:06:58;100721.00;;;19.41;98.09
15308;BME280;7755;52.208;6.964;2023-07-22T19:11:00;100715.06;;;19.33;98.35
15308;BME280;7755;52.208;6.964;2023-07-22T19:15:07;100717.38;;;19.26;99.56
15308;BME280;7755;52.208;6.964;2023-07-22T19:19:11;100717.81;;;19.15;100.00
15308;BME280;7755;52.208;6.964;2023-07-22T19:23:14;100718.16;;;19.08;100.00
15308;BME280;7755;52.208;6.964;2023-07-22T19:27:17;100723.16;;;19.06;100.00
15308;BME280;7755;52.208;6.964;2023-07-22T19:31:20;100718.84;;;19.00;100.00
15308;BME280;7755;52.208;6.964;2023-07-22T19:35:24;100721.34;;;18.96;100.00
15308;BME280;7755;52.208;6.964;2023-07-22T19:39:27;100715.94;;;18.91;100.00
15308;BME280;7755;52.208;6.964;2023-07-22T19:43:30;100726.50;;;18.84;100.00
15308;BME280;7755;52.208;6.964;2023-07-22T19:47:33;100724.91;;;18.78;100.00
15308;BME280;7755;52.208;6.964;2023-07-22T19:51:37;100726.09;;;18.72;100.00
15308;BME280;7755;52.208;6.964;2023-07-22T19:55:40;100730.28;;;18.64;100.00
15308;BME280;7755;52.208;6.964;2023-07-22T19:59:43;100734.88;;;18.50;100.00
15308;BME280;7755;52.208;6.964;2023-07-22T20:03:46;100733.34;;;18.39;100.00
15308;BME280;7755;52.208;6.964;2023-07-22T20:07:50;100737.59;;;18.26;100.00
15308;BME280;7755;52.208;6.964;2023-07-22T20:11:53;100744.88;;;18.12;100.00
15308;BME280;7755;52.208;6.964;2023-07-22T20:15:56;100746.97;;;17.96;100.00
15308;BME280;7755;52.208;6.964;2023-07-22T20:19:59;100755.91;;;17.78;100.00
15308;BME280;7755;52.208;6.964;2023-07-22T20:24:03;100761.00;;;17.55;100.00
15308;BME280;7755;52.208;6.964;2023-07-22T20:28:07;100757.78;;;17.43;100.00
15308;BME280;7755;52.208;6.964;2023-07-22T20:32:09;100755.91;;;17.33;100.00
15308;BME280;7755;52.208;6.964;2023-07-22T20:36:29;100755.41;;;17.26;100.00
15308;BME280;7755;52.208;6.964;2023-07-22T20:40:33;100759.56;;;17.18;100.00
15308;BME280;7755;52.208;6.964;2023-07-22T20:44:36;100763.75;;;17.11;100.00
15308;BME280;7755;52.208;6.964;2023-07-22T20:48:38;100753.06;;;17.04;100.00
15308;BME280;7755;52.208;6.964;2023-07-22T20:52:43;100758.56;;;16.99;100.00
15308;BME280;7755;52.208;6.964;2023-07-22T20:56:47;100758.84;;;17.03;100.00
15308;BME280;7755;52.208;6.964;2023-07-22T21:00:51;100767.38;;;16.96;100.00
15308;BME280;7755;52.208;6.964;2023-07-22T21:04:54;100762.72;;;16.91;100.00
15308;BME280;7755;52.208;6.964;2023-07-22T21:08:57;100756.44;;;16.86;100.00
15308;BME280;7755;52.208;6.964;2023-07-22T21:13:01;100752.88;;;16.85;100.00
15308;BME280;7755;52.208;6.964;2023-07-22T21:17:05;100748.75;;;16.88;100.00
15308;BME280;7755;52.208;6.964;2023-07-22T21:21:08;100751.47;;;16.93;100.00